KMTC

Selfridge Angb Airport

Mount Clemens, Michigan, USA
TAF KMTC 210900Z 2109/2215 16012KT 8000 -SHRA BKN050 BKN250 QNH2970INS BECMG 2115/2116 13012G18KT 9000 -SHRA BKN020 OVC060 QNH2972INS TEMPO 2116/2120 13015G25KT 6000 -TSRA OVC030CB BECMG 2123/2124 13009KT 9000 -SHRA BKN030 OVC060 QNH2974INS BECMG 2205/2206 10009KT 9999 NSW BKN030 QNH2977INS TX24/2119Z TN20/2109Z LAST NO AMDS AFT 2109 NEXT 2111
Issued Valid From Valid To
Jul-21 @ 09:00 UTC
(an hour ago)
Jul-21 @ 09:00 UTC
(an hour ago)
Jul-22 @ 15:00 UTC
(-1 days ago)
Jul-21 @ 09:00 to Jul-21 @ 15:00
TAF KMTC 210900Z 2109/2215 16012KT 8000 -SHRA BKN050 BKN250 QNH2970INS
Wind Visibility Clouds Conditions Readings
160° at 12 knots 41/97 miles
  • Broken at 5,000' AGL
  • Broken at 25,000' AGL
  • Light Rain
Altimeter 29.7" Hg
Pressure 1006 hPa
Becoming Jul-21 @ 15:00 to Jul-21 @ 23:00
BECMG 2115/2116 13012G18KT 9000 -SHRA BKN020 OVC060 QNH2972INS
Wind Visibility Clouds Conditions Readings
130° at 12 knots
 Gusting to 18 knots
51/59 miles
  • Broken at 2,000' AGL
  • Overcast at 6,000' AGL
  • Light Rain
Altimeter 29.73" Hg
Pressure 1007 hPa
Temporary Jul-21 @ 16:00 to Jul-21 @ 20:00
TEMPO 2116/2120 13015G25KT 6000 -TSRA OVC030CB
Wind Visibility Clouds Conditions
130° at 15 knots
 Gusting to 25 knots
31/73 miles
  • Overcast at 3,000' AGL
  • Light Thunderstorm
  • Light Rain
Becoming Jul-21 @ 23:00 to Jul-22 @ 05:00
BECMG 2123/2124 13009KT 9000 -SHRA BKN030 OVC060 QNH2974INS
Wind Visibility Clouds Conditions Readings
130° at 9 knots 51/59 miles
  • Broken at 3,000' AGL
  • Overcast at 6,000' AGL
  • Light Rain
Altimeter 29.73" Hg
Pressure 1007 hPa
Becoming Jul-22 @ 05:00 to Jul-22 @ 15:00
BECMG 2205/2206 10009KT 9999 NSW BKN030 QNH2977INS TX24/2119Z TN20/2109Z LAST NO AMDS AFT 2109 NEXT 2111
Wind Visibility Clouds Conditions Readings
100° at 9 knots Greater than 6 miles
  • Broken at 3,000' AGL
Altimeter 29.76" Hg
Pressure 1008 hPa
TAF KMTC 210900Z 2109/2215 16012KT 8000 -SHRA BKN050 BKN250 QNH2970INS BECMG 2115/2116 13012G18KT 9000 -SHRA BKN020 OVC060 QNH2972INS TEMPO 2116/2120 13015G25KT 6000 -TSRA OVC030CB BECMG 2123/2124 13009KT 9000 -SHRA BKN030 OVC060 QNH2974INS BECMG 2205/2206 10009KT 9999 NSW BKN030 QNH2977INS TX24/2119Z TN20/2109Z LAST NO AMDS AFT 2109 NEXT 2111
Issued Jul-21 @ 09:00 UTC
(an hour ago)
Valid From Jul-21 @ 09:00 UTC
(an hour ago)
Valid To Jul-22 @ 15:00 UTC
(-1 days ago)
Jul-21 @ 09:00 - Jul-21 @ 15:00
Wind Visibility
160° at 12 knots 41/97 miles
Clouds
  • Broken at 5,000' AGL
  • Broken at 25,000' AGL
Conditions
  • Light Rain
Becoming Jul-21 @ 15:00 - Jul-21 @ 23:00
Wind Visibility
130° at 12 knots
 Gusting to 18 knots
51/59 miles
Clouds
  • Broken at 2,000' AGL
  • Overcast at 6,000' AGL
Conditions
  • Light Rain
Temporary Jul-21 @ 16:00 - Jul-21 @ 20:00
Wind Visibility
130° at 15 knots
 Gusting to 25 knots
31/73 miles
Clouds
  • Overcast at 3,000' AGL
Conditions
  • Light Thunderstorm
  • Light Rain
Becoming Jul-21 @ 23:00 - Jul-22 @ 05:00
Wind Visibility
130° at 9 knots 51/59 miles
Clouds
  • Broken at 3,000' AGL
  • Overcast at 6,000' AGL
Conditions
  • Light Rain
Becoming Jul-22 @ 05:00 - Jul-22 @ 15:00
Wind Visibility
100° at 9 knots Greater than 6 miles
Clouds
  • Broken at 3,000' AGL
Conditions